Earl Gonsoulin — WDC3306 — position and weather

sailwx.info

Track history (hours):
 
Tides and Currents Weather Stations Pressure Air Temp Water Temp Dewpoint Dewpoint Depression Visibility Wind Speed Wind Dir Waves Ship Positions

Earl Gonsoulin

Owner: LeBeouf Bros. Towing, L.L.C., Houma, LA. More information available from US FCC via Universal Licensing System and Coast Guard Vessel Documentation Center.

Last reported at 2017-May-29 14:18 UTC. Time now 2017-May-30 11:04 UTC.
Position N 29°34' W 090°36'.

Length 21 m; draft 3 m.

Type: Tug. MMSI: 367005550.

Date/timePositionNaut miles runAvg speedWind from/ knotsBaromVisibWave heightAir tempDewpointWater temp
2017-May-29 14:18N 29°34' W 090°36'  
2017-May-26 08:35N 29°35' W 090°35'0 5.0
2017-May-26 08:30N 29°35' W 090°36'0 0.2
2017-May-26 07:59N 29°35' W 090°36'2 0.1
2017-May-25 11:35N 29°34' W 090°33'1 6.9
2017-May-25 11:29N 29°34' W 090°34'3 5.4
2017-May-25 11:00N 29°35' W 090°37'3 5.5
2017-May-25 10:30N 29°36' W 090°40'2 4.8
2017-May-25 10:00N 29°37' W 090°42'2 3.2
2017-May-25 09:30N 29°35' W 090°43'1 2.8
2017-May-25 09:00N 29°34' W 090°44'1 3.0
2017-May-25 08:30N 29°33' W 090°45'0 0.6
2017-May-25 08:00N 29°33' W 090°45'0 0.0
2017-May-25 07:30N 29°33' W 090°45'0 0.0
2017-May-25 07:00N 29°33' W 090°45'0 0.0
2017-May-25 06:30N 29°33' W 090°45'0 0.0
2017-May-25 06:00N 29°33' W 090°45'69 4.0
2017-May-24 12:42N 29°49' W 092°03'2 6.2
2017-May-24 12:20N 29°48' W 092°05'2 6.2
2017-May-24 12:00N 29°47' W 092°07'3 6.1
2017-May-24 11:30N 29°47' W 092°11'3 5.9
2017-May-24 11:00N 29°48' W 092°14'3 5.3
2017-May-24 10:30N 29°49' W 092°17'48 5.1
2017-May-24 01:12N 29°57' W 093°11'3 5.9
2017-May-24 00:44N 29°59' W 093°13'1 5.7
2017-May-24 00:30N 30°00' W 093°14'3 5.1
2017-May-24 00:00N 30°02' W 093°15'3 5.3
2017-May-23 23:30N 30°05' W 093°17'2 4.0
2017-May-23 23:00N 30°06' W 093°18'0 1.0
2017-May-23 22:30N 30°06' W 093°19'0 0.9
2017-May-23 22:00N 30°06' W 093°19'2 3.4
2017-May-23 21:30N 30°04' W 093°21'0 0.1
2017-May-23 21:00N 30°04' W 093°20'0 0.0
2017-May-23 20:30N 30°04' W 093°20'0 0.0
2017-May-23 20:00N 30°04' W 093°20'0 0.0
2017-May-23 19:30N 30°04' W 093°20'0 0.0
2017-May-23 19:00N 30°04' W 093°20'0 0.0
2017-May-23 18:30N 30°04' W 093°20'0 0.0
2017-May-23 18:00N 30°04' W 093°20'1 1.3
2017-May-23 17:30N 30°05' W 093°20'2 3.3
2017-May-23 17:00N 30°04' W 093°21'0 0.0
2017-May-23 16:30N 30°04' W 093°21'0 0.0
2017-May-23 16:00N 30°04' W 093°21'1 1.9
2017-May-23 15:30N 30°04' W 093°21'0 0.0
2017-May-23 15:00N 30°04' W 093°21'0 0.0
2017-May-23 14:30N 30°04' W 093°21'0 0.0
2017-May-23 13:30N 30°04' W 093°21'0 0.0
2017-May-23 13:00N 30°04' W 093°21'0 0.0
2017-May-23 12:30N 30°04' W 093°21'0 0.0
2017-May-23 12:00N 30°04' W 093°21'0 0.0
2017-May-23 11:30N 30°04' W 093°21'0 0.0
2017-May-23 11:00N 30°04' W 093°21'0 0.0
2017-May-23 10:30N 30°04' W 093°21'0 0.0
2017-May-23 10:00N 30°04' W 093°21'0 0.0
2017-May-23 09:30N 30°04' W 093°21'0 0.0
2017-May-23 09:00N 30°04' W 093°21'0 0.0
2017-May-23 08:30N 30°04' W 093°21'0 0.0
2017-May-23 08:00N 30°04' W 093°21'0 0.0
2017-May-23 07:30N 30°04' W 093°21'0 0.0
2017-May-23 07:00N 30°04' W 093°21'0 0.0
2017-May-23 06:30N 30°04' W 093°21'0 0.0
2017-May-23 06:00N 30°04' W 093°21'0 0.0
2017-May-23 05:30N 30°04' W 093°21'0 0.0
2017-May-23 05:00N 30°04' W 093°21'0 0.0
2017-May-23 04:30N 30°04' W 093°21'0 0.0
2017-May-23 04:00N 30°04' W 093°21'0 0.0
2017-May-23 03:30N 30°04' W 093°21'0 0.0
2017-May-23 03:00N 30°04' W 093°21'0 0.0
2017-May-23 02:30N 30°04' W 093°21'0 0.0
2017-May-23 02:00N 30°04' W 093°21'0 0.0
2017-May-23 01:30N 30°04' W 093°21'0 0.0
2017-May-23 01:00N 30°04' W 093°21'0 0.0
2017-May-23 00:30N 30°04' W 093°21'0 0.0
2017-May-23 00:00N 30°04' W 093°21'0 0.0
2017-May-22 23:30N 30°04' W 093°21'0 0.0
2017-May-22 23:00N 30°04' W 093°21'0 0.0
2017-May-22 22:30N 30°04' W 093°21'0 0.0
2017-May-22 22:00N 30°04' W 093°21'0 0.0
2017-May-22 21:30N 30°04' W 093°21'0 0.0
2017-May-22 21:00N 30°04' W 093°21'0 0.0
2017-May-22 20:30N 30°04' W 093°21'0 0.0
2017-May-22 20:00N 30°04' W 093°21'0 0.0
2017-May-22 19:30N 30°04' W 093°21'0 0.0
2017-May-22 19:00N 30°04' W 093°21'0 0.0
2017-May-22 18:30N 30°04' W 093°21'0 0.0
2017-May-22 18:00N 30°04' W 093°21'0 0.0
2017-May-22 17:30N 30°04' W 093°21'0 0.0
2017-May-22 17:00N 30°04' W 093°21'0 0.0
2017-May-22 16:30N 30°04' W 093°21'0 0.0
2017-May-22 16:00N 30°04' W 093°21'0 0.0
2017-May-22 15:30N 30°04' W 093°21'0 0.0
2017-May-22 15:00N 30°04' W 093°21'0 0.0
2017-May-22 14:00N 30°04' W 093°21'0 0.0
2017-May-22 13:30N 30°04' W 093°21'0 0.0
2017-May-22 13:00N 30°04' W 093°21'0 0.0
2017-May-22 12:30N 30°04' W 093°21'0 0.0
2017-May-22 12:00N 30°04' W 093°21'0 0.0
2017-May-22 11:30N 30°04' W 093°21'0 0.0
2017-May-22 11:00N 30°04' W 093°21'0 0.0
2017-May-22 10:30N 30°04' W 093°21'0 0.0
2017-May-22 10:00N 30°04' W 093°21'0 0.0
2017-May-22 09:30N 30°04' W 093°21'0 0.0
2017-May-22 09:00N 30°04' W 093°21'0 0.0
2017-May-22 08:30N 30°04' W 093°21'0 0.0
2017-May-22 08:00N 30°04' W 093°21'0 0.0
2017-May-22 07:30N 30°04' W 093°21'0 0.0
2017-May-22 07:00N 30°04' W 093°21'0 0.0
2017-May-22 06:30N 30°04' W 093°21'0 0.0
2017-May-22 06:00N 30°04' W 093°21'0 0.0
2017-May-22 05:30N 30°04' W 093°21'0 0.0
2017-May-22 05:00N 30°04' W 093°21'0 0.0
2017-May-22 04:30N 30°04' W 093°21'0 0.0
2017-May-22 04:00N 30°04' W 093°21'0 0.0
2017-May-22 03:30N 30°04' W 093°21'0 0.0
2017-May-22 03:00N 30°04' W 093°21'0 0.0
2017-May-22 02:30N 30°04' W 093°21'0 0.0
2017-May-22 02:00N 30°04' W 093°21'0 0.0
2017-May-22 01:30N 30°04' W 093°21'0 0.0
2017-May-22 01:00N 30°04' W 093°21'0 0.0
2017-May-22 00:30N 30°04' W 093°21'0 0.0
2017-May-22 00:00N 30°04' W 093°21'0 0.0
2017-May-21 23:30N 30°04' W 093°21'0 0.0
2017-May-21 23:00N 30°04' W 093°21'0 0.0
2017-May-21 22:30N 30°04' W 093°21'0 0.0
2017-May-21 22:00N 30°04' W 093°21'0 0.0
2017-May-21 21:30N 30°04' W 093°21'0 0.0
2017-May-21 21:00N 30°04' W 093°21'0 0.0
2017-May-21 20:30N 30°04' W 093°21'1 1.0
2017-May-21 20:00N 30°05' W 093°20'2 4.0
2017-May-21 19:30N 30°06' W 093°19'0 0.1
2017-May-21 19:00N 30°06' W 093°19'0 0.0
2017-May-21 18:30N 30°06' W 093°19'0 0.1
2017-May-21 18:00N 30°06' W 093°19'0 0.0
2017-May-21 17:30N 30°06' W 093°19'0 0.1
2017-May-21 17:00N 30°06' W 093°19'2 4.2
2017-May-21 16:30N 30°05' W 093°20'0 0.7
2017-May-21 16:00N 30°04' W 093°21'0 0.0
2017-May-21 15:30N 30°04' W 093°21'0 0.0
2017-May-21 15:00N 30°04' W 093°21'0 0.0
2017-May-21 14:00N 30°04' W 093°20'0 0.0
2017-May-21 13:30N 30°04' W 093°21'0 0.0
2017-May-21 13:00N 30°04' W 093°21'0 0.0
2017-May-21 12:30N 30°04' W 093°21'0 0.0
2017-May-21 12:00N 30°04' W 093°21'0 0.0
2017-May-21 11:30N 30°04' W 093°21'0 0.0
2017-May-21 11:00N 30°04' W 093°21'0 0.0
2017-May-21 10:30N 30°04' W 093°21'0 0.0
2017-May-21 10:00N 30°04' W 093°21'0 0.0
2017-May-21 09:30N 30°04' W 093°21'0 0.0
2017-May-21 09:00N 30°04' W 093°21'0 0.0
2017-May-21 08:30N 30°04' W 093°21'0 0.0
2017-May-21 08:00N 30°04' W 093°21'0 0.0
2017-May-21 07:30N 30°04' W 093°21'0 0.0
2017-May-21 07:00N 30°04' W 093°21'0 0.0
2017-May-21 06:30N 30°04' W 093°21'0 0.0
2017-May-21 06:00N 30°04' W 093°21'0 0.0
2017-May-21 05:30N 30°04' W 093°21'0 0.0
2017-May-21 05:00N 30°04' W 093°21'0 0.0
2017-May-21 04:30N 30°04' W 093°21'0 0.0
2017-May-21 04:00N 30°04' W 093°21'0 0.0
2017-May-21 03:30N 30°04' W 093°21'0 0.0
2017-May-21 03:00N 30°04' W 093°21'0 0.0
2017-May-21 02:30N 30°04' W 093°20'0 0.0
2017-May-21 02:00N 30°04' W 093°21'0 0.0
2017-May-21 01:30N 30°04' W 093°21'0 0.0
2017-May-21 01:00N 30°04' W 093°20'0 0.0
2017-May-21 00:30N 30°04' W 093°21'0 0.0
2017-May-21 00:00N 30°04' W 093°21'0 0.0
2017-May-20 23:30N 30°04' W 093°21'0 0.0
2017-May-20 23:00N 30°04' W 093°20'0 0.0
2017-May-20 22:30N 30°04' W 093°20'0 0.0
2017-May-20 22:00N 30°04' W 093°20'0 0.0
2017-May-20 21:30N 30°04' W 093°20'0 0.0
2017-May-20 21:00N 30°04' W 093°20'0 0.0
2017-May-20 20:30N 30°04' W 093°20'0 0.0
2017-May-20 20:00N 30°04' W 093°20'0 0.0
2017-May-20 19:30N 30°04' W 093°20'0 0.0
2017-May-20 19:00N 30°04' W 093°20'0 0.0
2017-May-20 18:30N 30°04' W 093°20'0 0.0
2017-May-20 18:00N 30°04' W 093°20'0 0.0
2017-May-20 17:30N 30°04' W 093°20'0 0.0
2017-May-20 17:00N 30°04' W 093°20'0 0.0
2017-May-20 16:30N 30°04' W 093°20'0 0.0
2017-May-20 16:00N 30°04' W 093°20'0 0.0
2017-May-20 15:30N 30°04' W 093°20'0 0.0
2017-May-20 15:00N 30°04' W 093°20'0 0.0
2017-May-20 14:30N 30°04' W 093°20'0 0.0
2017-May-20 13:30N 30°04' W 093°20'0 0.0
2017-May-20 13:00N 30°04' W 093°20'0 0.0
2017-May-20 12:30N 30°04' W 093°20'0 0.0
2017-May-20 12:00N 30°04' W 093°20'0 0.0
2017-May-20 11:30N 30°04' W 093°20'0 0.0
2017-May-20 11:00N 30°04' W 093°20'0 0.0
2017-May-20 10:30N 30°04' W 093°20'0 0.0
2017-May-20 10:00N 30°04' W 093°20'0 0.0
2017-May-20 09:30N 30°04' W 093°20'0 0.0
2017-May-20 09:00N 30°04' W 093°20'0 0.0
2017-May-20 08:30N 30°04' W 093°20'0 0.0
2017-May-20 08:00N 30°04' W 093°20'0 0.0
2017-May-20 07:30N 30°04' W 093°20'0 0.0
2017-May-20 07:00N 30°04' W 093°20'0 0.0
2017-May-20 06:30N 30°04' W 093°20'0 0.0
2017-May-20 06:00N 30°04' W 093°20'0 0.0
2017-May-20 05:30N 30°04' W 093°20'0 0.0
2017-May-20 05:00N 30°04' W 093°20'0 0.0
2017-May-20 04:30N 30°04' W 093°20'0 0.0
2017-May-20 04:00N 30°04' W 093°20'0 0.0
2017-May-20 03:30N 30°04' W 093°20'0 0.0
2017-May-20 03:00N 30°04' W 093°20'0 0.0
2017-May-20 02:30N 30°04' W 093°20'0 0.0
2017-May-20 02:00N 30°04' W 093°20'0 0.0
2017-May-20 01:30N 30°04' W 093°20'0 0.0
2017-May-20 01:00N 30°04' W 093°20'0 0.0
2017-May-20 00:30N 30°04' W 093°20'0 0.0
2017-May-20 00:00N 30°04' W 093°20'0 0.0
2017-May-19 23:30N 30°04' W 093°21'0 0.1
2017-May-19 23:00N 30°04' W 093°20'0 0.6
2017-May-19 22:30N 30°05' W 093°20'3 5.9
2017-May-19 22:00N 30°08' W 093°20'3 5.5
2017-May-19 21:30N 30°10' W 093°19'3 6.5
2017-May-19 21:00N 30°12' W 093°16'1 2.6
2017-May-19 20:27N 30°14' W 093°16'0 0.2
2017-May-19 20:00N 30°14' W 093°16'0 0.0
2017-May-19 19:30N 30°14' W 093°16'0 0.0
2017-May-19 19:00N 30°14' W 093°16'0 0.0
2017-May-19 18:30N 30°14' W 093°16'0 0.0
2017-May-19 18:00N 30°14' W 093°16'0 0.0
2017-May-19 17:30N 30°14' W 093°16'0 0.0
2017-May-19 17:00N 30°14' W 093°16'0 0.0
2017-May-19 16:30N 30°14' W 093°16'0 0.0
2017-May-19 16:00N 30°14' W 093°16'0 0.0
2017-May-19 15:30N 30°14' W 093°16'0 0.0
2017-May-19 15:00N 30°14' W 093°16'  
Track history (hours):
 
Tides and Currents Weather Stations Pressure Air Temp Water Temp Dewpoint Dewpoint Depression Visibility Wind Speed Wind Dir Waves Ship Positions

Earl Gonsoulin

Owner: LeBeouf Bros. Towing, L.L.C., Houma, LA. More information available from US FCC via Universal Licensing System and Coast Guard Vessel Documentation Center.

Last reported at 2017-May-29 14:18 UTC. Time now 2017-May-30 11:04 UTC.
Position N 29°34' W 090°36'.

Length 21 m; draft 3 m.

Type: Tug. MMSI: 367005550.

Date/timePositionNaut miles runAvg speedWind from/ knotsBaromVisibWave heightAir tempDewpointWater temp
2017-May-29 14:18N 29°34' W 090°36'  
2017-May-26 08:35N 29°35' W 090°35'0 5.0
2017-May-26 08:30N 29°35' W 090°36'0 0.2
2017-May-26 07:59N 29°35' W 090°36'2 0.1
2017-May-25 11:35N 29°34' W 090°33'1 6.9
2017-May-25 11:29N 29°34' W 090°34'3 5.4
2017-May-25 11:00N 29°35' W 090°37'3 5.5
2017-May-25 10:30N 29°36' W 090°40'2 4.8
2017-May-25 10:00N 29°37' W 090°42'2 3.2
2017-May-25 09:30N 29°35' W 090°43'1 2.8
2017-May-25 09:00N 29°34' W 090°44'1 3.0
2017-May-25 08:30N 29°33' W 090°45'0 0.6
2017-May-25 08:00N 29°33' W 090°45'0 0.0
2017-May-25 07:30N 29°33' W 090°45'0 0.0
2017-May-25 07:00N 29°33' W 090°45'0 0.0
2017-May-25 06:30N 29°33' W 090°45'0 0.0
2017-May-25 06:00N 29°33' W 090°45'69 4.0
2017-May-24 12:42N 29°49' W 092°03'2 6.2
2017-May-24 12:20N 29°48' W 092°05'2 6.2
2017-May-24 12:00N 29°47' W 092°07'3 6.1
2017-May-24 11:30N 29°47' W 092°11'3 5.9
2017-May-24 11:00N 29°48' W 092°14'3 5.3
2017-May-24 10:30N 29°49' W 092°17'48 5.1
2017-May-24 01:12N 29°57' W 093°11'3 5.9
2017-May-24 00:44N 29°59' W 093°13'1 5.7
2017-May-24 00:30N 30°00' W 093°14'3 5.1
2017-May-24 00:00N 30°02' W 093°15'3 5.3
2017-May-23 23:30N 30°05' W 093°17'2 4.0
2017-May-23 23:00N 30°06' W 093°18'0 1.0
2017-May-23 22:30N 30°06' W 093°19'0 0.9
2017-May-23 22:00N 30°06' W 093°19'2 3.4
2017-May-23 21:30N 30°04' W 093°21'0 0.1
2017-May-23 21:00N 30°04' W 093°20'0 0.0
2017-May-23 20:30N 30°04' W 093°20'0 0.0
2017-May-23 20:00N 30°04' W 093°20'0 0.0
2017-May-23 19:30N 30°04' W 093°20'0 0.0
2017-May-23 19:00N 30°04' W 093°20'0 0.0
2017-May-23 18:30N 30°04' W 093°20'0 0.0
2017-May-23 18:00N 30°04' W 093°20'1 1.3
2017-May-23 17:30N 30°05' W 093°20'2 3.3
2017-May-23 17:00N 30°04' W 093°21'0 0.0
2017-May-23 16:30N 30°04' W 093°21'0 0.0
2017-May-23 16:00N 30°04' W 093°21'1 1.9
2017-May-23 15:30N 30°04' W 093°21'0 0.0
2017-May-23 15:00N 30°04' W 093°21'0 0.0
2017-May-23 14:30N 30°04' W 093°21'0 0.0
2017-May-23 13:30N 30°04' W 093°21'0 0.0
2017-May-23 13:00N 30°04' W 093°21'0 0.0
2017-May-23 12:30N 30°04' W 093°21'0 0.0
2017-May-23 12:00N 30°04' W 093°21'0 0.0
2017-May-23 11:30N 30°04' W 093°21'0 0.0
2017-May-23 11:00N 30°04' W 093°21'0 0.0
2017-May-23 10:30N 30°04' W 093°21'0 0.0
2017-May-23 10:00N 30°04' W 093°21'0 0.0
2017-May-23 09:30N 30°04' W 093°21'0 0.0
2017-May-23 09:00N 30°04' W 093°21'0 0.0
2017-May-23 08:30N 30°04' W 093°21'0 0.0
2017-May-23 08:00N 30°04' W 093°21'0 0.0
2017-May-23 07:30N 30°04' W 093°21'0 0.0
2017-May-23 07:00N 30°04' W 093°21'0 0.0
2017-May-23 06:30N 30°04' W 093°21'0 0.0
2017-May-23 06:00N 30°04' W 093°21'0 0.0
2017-May-23 05:30N 30°04' W 093°21'0 0.0
2017-May-23 05:00N 30°04' W 093°21'0 0.0
2017-May-23 04:30N 30°04' W 093°21'0 0.0
2017-May-23 04:00N 30°04' W 093°21'0 0.0
2017-May-23 03:30N 30°04' W 093°21'0 0.0
2017-May-23 03:00N 30°04' W 093°21'0 0.0
2017-May-23 02:30N 30°04' W 093°21'0 0.0
2017-May-23 02:00N 30°04' W 093°21'0 0.0
2017-May-23 01:30N 30°04' W 093°21'0 0.0
2017-May-23 01:00N 30°04' W 093°21'0 0.0
2017-May-23 00:30N 30°04' W 093°21'0 0.0
2017-May-23 00:00N 30°04' W 093°21'0 0.0
2017-May-22 23:30N 30°04' W 093°21'0 0.0
2017-May-22 23:00N 30°04' W 093°21'0 0.0
2017-May-22 22:30N 30°04' W 093°21'0 0.0
2017-May-22 22:00N 30°04' W 093°21'0 0.0
2017-May-22 21:30N 30°04' W 093°21'0 0.0
2017-May-22 21:00N 30°04' W 093°21'0 0.0
2017-May-22 20:30N 30°04' W 093°21'0 0.0
2017-May-22 20:00N 30°04' W 093°21'0 0.0
2017-May-22 19:30N 30°04' W 093°21'0 0.0
2017-May-22 19:00N 30°04' W 093°21'0 0.0
2017-May-22 18:30N 30°04' W 093°21'0 0.0
2017-May-22 18:00N 30°04' W 093°21'0 0.0
2017-May-22 17:30N 30°04' W 093°21'0 0.0
2017-May-22 17:00N 30°04' W 093°21'0 0.0
2017-May-22 16:30N 30°04' W 093°21'0 0.0
2017-May-22 16:00N 30°04' W 093°21'0 0.0
2017-May-22 15:30N 30°04' W 093°21'0 0.0
2017-May-22 15:00N 30°04' W 093°21'0 0.0
2017-May-22 14:00N 30°04' W 093°21'0 0.0
2017-May-22 13:30N 30°04' W 093°21'0 0.0
2017-May-22 13:00N 30°04' W 093°21'0 0.0
2017-May-22 12:30N 30°04' W 093°21'0 0.0
2017-May-22 12:00N 30°04' W 093°21'0 0.0
2017-May-22 11:30N 30°04' W 093°21'0 0.0
2017-May-22 11:00N 30°04' W 093°21'0 0.0
2017-May-22 10:30N 30°04' W 093°21'0 0.0
2017-May-22 10:00N 30°04' W 093°21'0 0.0
2017-May-22 09:30N 30°04' W 093°21'0 0.0
2017-May-22 09:00N 30°04' W 093°21'0 0.0
2017-May-22 08:30N 30°04' W 093°21'0 0.0
2017-May-22 08:00N 30°04' W 093°21'0 0.0
2017-May-22 07:30N 30°04' W 093°21'0 0.0
2017-May-22 07:00N 30°04' W 093°21'0 0.0
2017-May-22 06:30N 30°04' W 093°21'0 0.0
2017-May-22 06:00N 30°04' W 093°21'0 0.0
2017-May-22 05:30N 30°04' W 093°21'0 0.0
2017-May-22 05:00N 30°04' W 093°21'0 0.0
2017-May-22 04:30N 30°04' W 093°21'0 0.0
2017-May-22 04:00N 30°04' W 093°21'0 0.0
2017-May-22 03:30N 30°04' W 093°21'0 0.0
2017-May-22 03:00N 30°04' W 093°21'0 0.0
2017-May-22 02:30N 30°04' W 093°21'0 0.0
2017-May-22 02:00N 30°04' W 093°21'0 0.0
2017-May-22 01:30N 30°04' W 093°21'0 0.0
2017-May-22 01:00N 30°04' W 093°21'0 0.0
2017-May-22 00:30N 30°04' W 093°21'0 0.0
2017-May-22 00:00N 30°04' W 093°21'0 0.0
2017-May-21 23:30N 30°04' W 093°21'0 0.0
2017-May-21 23:00N 30°04' W 093°21'0 0.0
2017-May-21 22:30N 30°04' W 093°21'0 0.0
2017-May-21 22:00N 30°04' W 093°21'0 0.0
2017-May-21 21:30N 30°04' W 093°21'0 0.0
2017-May-21 21:00N 30°04' W 093°21'0 0.0
2017-May-21 20:30N 30°04' W 093°21'1 1.0
2017-May-21 20:00N 30°05' W 093°20'2 4.0
2017-May-21 19:30N 30°06' W 093°19'0 0.1
2017-May-21 19:00N 30°06' W 093°19'0 0.0
2017-May-21 18:30N 30°06' W 093°19'0 0.1
2017-May-21 18:00N 30°06' W 093°19'0 0.0
2017-May-21 17:30N 30°06' W 093°19'0 0.1
2017-May-21 17:00N 30°06' W 093°19'2 4.2
2017-May-21 16:30N 30°05' W 093°20'0 0.7
2017-May-21 16:00N 30°04' W 093°21'0 0.0
2017-May-21 15:30N 30°04' W 093°21'0 0.0
2017-May-21 15:00N 30°04' W 093°21'0 0.0
2017-May-21 14:00N 30°04' W 093°20'0 0.0
2017-May-21 13:30N 30°04' W 093°21'0 0.0
2017-May-21 13:00N 30°04' W 093°21'0 0.0
2017-May-21 12:30N 30°04' W 093°21'0 0.0
2017-May-21 12:00N 30°04' W 093°21'0 0.0
2017-May-21 11:30N 30°04' W 093°21'0 0.0
2017-May-21 11:00N 30°04' W 093°21'0 0.0
2017-May-21 10:30N 30°04' W 093°21'0 0.0
2017-May-21 10:00N 30°04' W 093°21'0 0.0
2017-May-21 09:30N 30°04' W 093°21'0 0.0
2017-May-21 09:00N 30°04' W 093°21'0 0.0
2017-May-21 08:30N 30°04' W 093°21'0 0.0
2017-May-21 08:00N 30°04' W 093°21'0 0.0
2017-May-21 07:30N 30°04' W 093°21'0 0.0
2017-May-21 07:00N 30°04' W 093°21'0 0.0
2017-May-21 06:30N 30°04' W 093°21'0 0.0
2017-May-21 06:00N 30°04' W 093°21'0 0.0
2017-May-21 05:30N 30°04' W 093°21'0 0.0
2017-May-21 05:00N 30°04' W 093°21'0 0.0
2017-May-21 04:30N 30°04' W 093°21'0 0.0
2017-May-21 04:00N 30°04' W 093°21'0 0.0
2017-May-21 03:30N 30°04' W 093°21'0 0.0
2017-May-21 03:00N 30°04' W 093°21'0 0.0
2017-May-21 02:30N 30°04' W 093°20'0 0.0
2017-May-21 02:00N 30°04' W 093°21'0 0.0
2017-May-21 01:30N 30°04' W 093°21'0 0.0
2017-May-21 01:00N 30°04' W 093°20'0 0.0
2017-May-21 00:30N 30°04' W 093°21'0 0.0
2017-May-21 00:00N 30°04' W 093°21'0 0.0
2017-May-20 23:30N 30°04' W 093°21'0 0.0
2017-May-20 23:00N 30°04' W 093°20'0 0.0
2017-May-20 22:30N 30°04' W 093°20'0 0.0
2017-May-20 22:00N 30°04' W 093°20'0 0.0
2017-May-20 21:30N 30°04' W 093°20'0 0.0
2017-May-20 21:00N 30°04' W 093°20'0 0.0
2017-May-20 20:30N 30°04' W 093°20'0 0.0
2017-May-20 20:00N 30°04' W 093°20'0 0.0
2017-May-20 19:30N 30°04' W 093°20'0 0.0
2017-May-20 19:00N 30°04' W 093°20'0 0.0
2017-May-20 18:30N 30°04' W 093°20'0 0.0
2017-May-20 18:00N 30°04' W 093°20'0 0.0
2017-May-20 17:30N 30°04' W 093°20'0 0.0
2017-May-20 17:00N 30°04' W 093°20'0 0.0
2017-May-20 16:30N 30°04' W 093°20'0 0.0
2017-May-20 16:00N 30°04' W 093°20'0 0.0
2017-May-20 15:30N 30°04' W 093°20'0 0.0
2017-May-20 15:00N 30°04' W 093°20'0 0.0
2017-May-20 14:30N 30°04' W 093°20'0 0.0
2017-May-20 13:30N 30°04' W 093°20'0 0.0
2017-May-20 13:00N 30°04' W 093°20'0 0.0
2017-May-20 12:30N 30°04' W 093°20'0 0.0
2017-May-20 12:00N 30°04' W 093°20'0 0.0
2017-May-20 11:30N 30°04' W 093°20'0 0.0
2017-May-20 11:00N 30°04' W 093°20'0 0.0
2017-May-20 10:30N 30°04' W 093°20'0 0.0
2017-May-20 10:00N 30°04' W 093°20'0 0.0
2017-May-20 09:30N 30°04' W 093°20'0 0.0
2017-May-20 09:00N 30°04' W 093°20'0 0.0
2017-May-20 08:30N 30°04' W 093°20'0 0.0
2017-May-20 08:00N 30°04' W 093°20'0 0.0
2017-May-20 07:30N 30°04' W 093°20'0 0.0
2017-May-20 07:00N 30°04' W 093°20'0 0.0
2017-May-20 06:30N 30°04' W 093°20'0 0.0
2017-May-20 06:00N 30°04' W 093°20'0 0.0
2017-May-20 05:30N 30°04' W 093°20'0 0.0
2017-May-20 05:00N 30°04' W 093°20'0 0.0
2017-May-20 04:30N 30°04' W 093°20'0 0.0
2017-May-20 04:00N 30°04' W 093°20'0 0.0
2017-May-20 03:30N 30°04' W 093°20'0 0.0
2017-May-20 03:00N 30°04' W 093°20'0 0.0
2017-May-20 02:30N 30°04' W 093°20'0 0.0
2017-May-20 02:00N 30°04' W 093°20'0 0.0
2017-May-20 01:30N 30°04' W 093°20'0 0.0
2017-May-20 01:00N 30°04' W 093°20'0 0.0
2017-May-20 00:30N 30°04' W 093°20'0 0.0
2017-May-20 00:00N 30°04' W 093°20'0 0.0
2017-May-19 23:30N 30°04' W 093°21'0 0.1
2017-May-19 23:00N 30°04' W 093°20'0 0.6
2017-May-19 22:30N 30°05' W 093°20'3 5.9
2017-May-19 22:00N 30°08' W 093°20'3 5.5
2017-May-19 21:30N 30°10' W 093°19'3 6.5
2017-May-19 21:00N 30°12' W 093°16'1 2.6
2017-May-19 20:27N 30°14' W 093°16'0 0.2
2017-May-19 20:00N 30°14' W 093°16'0 0.0
2017-May-19 19:30N 30°14' W 093°16'0 0.0
2017-May-19 19:00N 30°14' W 093°16'0 0.0
2017-May-19 18:30N 30°14' W 093°16'0 0.0
2017-May-19 18:00N 30°14' W 093°16'0 0.0
2017-May-19 17:30N 30°14' W 093°16'0 0.0
2017-May-19 17:00N 30°14' W 093°16'0 0.0
2017-May-19 16:30N 30°14' W 093°16'0 0.0
2017-May-19 16:00N 30°14' W 093°16'0 0.0
2017-May-19 15:30N 30°14' W 093°16'0 0.0
2017-May-19 15:00N 30°14' W 093°16'  

Dump ship's entire track history